Time;durP1;ratioP1;P1;durP2;ratioP2;P2;SDS_P1;SDS_P2;PMS_P1;PMS_P2;Temp;Humidity;BMP_temperature;BMP_pressure;BME280_temperature;BME280_humidity;BME280_pressure;Samples;Min_cycle;Max_cycle;Signal;HPM_P1;HPM_P2
2021/12/05 00:19:43;;;;;;;4.13;1.73;;;20.00;49.30;;;;;;2261654;63;20198;-65
2021/12/05 00:22:22;;;;;;;1.73;1.50;;;20.00;49.30;;;;;;2261830;63;20337;-65
2021/12/05 00:24:51;;;;;;;1.77;1.40;;;20.00;49.30;;;;;;2261752;63;20336;-65
2021/12/05 00:27:27;;;;;;;2.90;1.83;;;20.00;49.30;;;;;;2262424;63;20172;-65
2021/12/05 00:30:04;;;;;;;;;;;19.90;49.20;;;;;;2263651;63;20193;-66
2021/12/05 00:32:48;;;;;;;2.58;1.50;;;19.90;49.20;;;;;;2263084;63;20146;-65
2021/12/05 00:38:15;;;;;;;3.13;1.83;;;19.90;49.30;;;;;;2263075;63;20770;-65
2021/12/05 00:41:18;;;;;;;2.08;1.58;;;19.90;49.30;;;;;;2262717;63;20211;-65
2021/12/05 00:49:27;;;;;;;2.10;1.50;;;19.80;49.20;;;;;;2263020;63;20176;-65
2021/12/05 01:13:57;;;;;;;2.88;1.63;;;19.70;49.10;;;;;;2262772;63;20286;-65
2021/12/05 01:16:13;;;;;;;3.03;1.83;;;19.80;49.20;;;;;;2262703;63;20182;-65
2021/12/05 01:18:40;;;;;;;2.20;1.98;;;19.70;49.10;;;;;;2262871;63;20156;-66
2021/12/05 01:21:13;;;;;;;2.53;1.40;;;19.70;49.10;;;;;;2262784;63;20241;-65
2021/12/05 01:24:02;;;;;;;1.83;1.40;;;19.70;49.10;;;;;;2262830;63;20167;-65
2021/12/05 01:29:05;;;;;;;1.73;1.40;;;19.70;49.10;;;;;;2262764;63;20815;-65
2021/12/05 01:31:42;;;;;;;2.05;1.58;;;19.60;49.00;;;;;;2262755;63;20207;-65
2021/12/05 01:34:34;;;;;;;2.22;1.60;;;19.70;49.10;;;;;;2262763;63;20164;-65
2021/12/05 01:42:55;;;;;;;2.67;1.63;;;19.60;49.00;;;;;;2262567;63;20667;-65
2021/12/05 01:55:42;;;;;;;2.53;1.80;;;19.60;49.00;;;;;;2262667;63;20223;-65
2021/12/05 02:09:39;;;;;;;3.58;1.85;;;19.50;48.90;;;;;;2262585;63;20305;-65
2021/12/05 02:31:43;;;;;;;3.30;1.73;;;19.40;48.80;;;;;;2262426;63;20172;-65
2021/12/05 02:41:54;;;;;;;1.58;1.30;;;19.40;48.80;;;;;;2262228;63;20846;-66
2021/12/05 02:44:22;;;;;;;3.33;2.13;;;19.40;48.80;;;;;;2262283;63;20753;-65
2021/12/05 02:47:01;;;;;;;3.03;1.73;;;19.40;48.80;;;;;;2262378;63;20180;-65
2021/12/05 02:49:29;;;;;;;1.98;1.60;;;19.40;48.80;;;;;;2262056;63;20172;-65
2021/12/05 02:52:00;;;;;;;3.08;1.40;;;19.40;48.80;;;;;;2262319;63;20219;-65
2021/12/05 02:54:34;;;;;;;1.85;1.50;;;19.40;48.80;;;;;;2262306;63;20172;-66
2021/12/05 02:57:00;;;;;;;2.38;1.58;;;19.40;48.80;;;;;;2262381;63;20239;-65
2021/12/05 02:59:41;;;;;;;2.17;1.85;;;19.40;48.80;;;;;;2262237;63;20805;-65
2021/12/05 03:02:15;;;;;;;2.85;1.83;;;19.40;48.80;;;;;;2262180;63;20274;-65
2021/12/05 03:04:46;;;;;;;2.05;1.70;;;19.40;48.80;;;;;;2262231;63;20758;-65
2021/12/05 03:07:14;;;;;;;2.75;1.60;;;19.40;48.80;;;;;;2262247;63;20180;-65
2021/12/05 03:09:42;;;;;;;2.00;1.40;;;19.40;48.80;;;;;;2262177;63;20700;-65
2021/12/05 03:12:10;;;;;;;2.85;1.77;;;19.30;49.30;;;;;;2262168;63;20197;-65
2021/12/05 03:14:38;;;;;;;3.05;1.75;;;19.30;48.70;;;;;;2262128;63;20176;-65
2021/12/05 03:17:04;;;;;;;2.80;1.88;;;19.30;48.70;;;;;;2262170;63;20756;-65
2021/12/05 03:19:30;;;;;;;4.95;1.70;;;19.40;48.80;;;;;;2262155;63;20160;-65
2021/12/05 03:21:56;;;;;;;3.58;1.63;;;19.30;48.70;;;;;;2262087;63;20692;-65
2021/12/05 03:24:23;;;;;;;2.83;1.80;;;19.30;48.70;;;;;;2262163;63;20176;-65
2021/12/05 03:26:53;;;;;;;3.05;1.45;;;19.30;48.70;;;;;;2262156;63;20168;-65
2021/12/05 03:29:20;;;;;;;3.20;1.50;;;19.30;48.70;;;;;;2262124;63;20176;-65
2021/12/05 03:31:47;;;;;;;3.83;1.67;;;19.30;48.70;;;;;;2262110;63;20186;-65
2021/12/05 03:34:16;;;;;;;2.53;1.65;;;19.30;48.70;;;;;;2262039;63;20313;-64
2021/12/05 03:36:47;;;;;;;2.17;1.67;;;19.30;48.60;;;;;;2262016;63;20267;-65
2021/12/05 03:39:13;;;;;;;3.78;1.83;;;19.30;48.60;;;;;;2261145;63;20192;-65
2021/12/05 03:41:40;;;;;;;2.65;1.83;;;19.30;48.60;;;;;;2251038;63;20177;-65
2021/12/05 03:44:07;;;;;;;2.63;1.40;;;19.30;48.60;;;;;;2253866;63;20204;-65
2021/12/05 03:46:34;;;;;;;2.55;1.83;;;19.30;48.60;;;;;;2253968;63;20214;-65
2021/12/05 03:49:07;;;;;;;2.40;1.70;;;19.30;48.60;;;;;;2253983;63;20169;-65
2021/12/05 03:51:37;;;;;;;2.15;1.33;;;19.30;48.60;;;;;;2253898;63;20168;-65
2021/12/05 03:54:05;;;;;;;2.40;1.70;;;19.30;48.60;;;;;;2253972;63;20597;-65
2021/12/05 03:56:35;;;;;;;2.47;1.50;;;19.20;48.60;;;;;;2253952;63;20161;-65
2021/12/05 03:59:03;;;;;;;2.80;1.73;;;19.20;48.50;;;;;;2253872;63;20727;-65
2021/12/05 04:01:29;;;;;;;2.00;1.65;;;19.20;48.50;;;;;;2254027;63;20334;-65
2021/12/05 04:03:55;;;;;;;2.17;1.60;;;19.20;48.50;;;;;;2255175;63;20193;-65
2021/12/05 04:06:23;;;;;;;2.60;1.55;;;19.20;48.50;;;;;;2255166;63;20216;-65
2021/12/05 04:08:49;;;;;;;3.08;1.80;;;19.20;48.50;;;;;;2255134;63;20165;-65
2021/12/05 04:11:27;;;;;;;1.90;1.70;;;19.20;48.50;;;;;;2255032;63;20293;-65
2021/12/05 04:13:53;;;;;;;2.83;1.42;;;19.30;48.60;;;;;;2255015;63;20280;-65
2021/12/05 04:16:19;;;;;;;3.13;1.52;;;19.20;48.50;;;;;;2255099;63;20157;-65
2021/12/05 04:18:46;;;;;;;2.85;1.60;;;19.20;48.50;;;;;;2255022;63;20668;-65
2021/12/05 04:21:14;;;;;;;1.77;1.45;;;19.20;48.50;;;;;;2255006;63;20576;-65
2021/12/05 04:23:40;;;;;;;2.95;1.58;;;19.20;48.50;;;;;;2255090;63;20260;-65
2021/12/05 04:26:06;;;;;;;2.83;1.70;;;19.20;48.50;;;;;;2255069;63;20165;-65
2021/12/05 04:28:33;;;;;;;3.15;1.77;;;19.20;48.50;;;;;;2255032;63;20284;-65
2021/12/05 04:31:00;;;;;;;2.25;1.50;;;19.20;48.50;;;;;;2254984;63;20274;-65
2021/12/05 04:33:26;;;;;;;3.13;1.58;;;19.20;48.50;;;;;;2254989;63;20173;-65
2021/12/05 04:35:52;;;;;;;3.13;1.80;;;19.20;48.40;;;;;;2254944;63;20283;-65
2021/12/05 04:38:18;;;;;;;3.15;1.75;;;19.20;48.40;;;;;;2254965;63;20180;-65
2021/12/05 04:40:49;;;;;;;2.97;1.30;;;19.10;48.40;;;;;;2254755;63;20181;-65
2021/12/05 04:43:15;;;;;;;2.53;1.60;;;19.20;48.40;;;;;;2254884;63;20286;-65
2021/12/05 04:45:42;;;;;;;3.30;1.80;;;19.10;48.40;;;;;;2254981;63;20737;-65
2021/12/05 04:48:08;;;;;;;2.47;1.45;;;19.10;48.40;;;;;;2254974;63;20259;-65
2021/12/05 04:50:35;;;;;;;3.20;1.90;;;19.10;48.40;;;;;;2254903;63;20212;-65
2021/12/05 04:53:03;;;;;;;2.47;1.50;;;19.10;48.40;;;;;;2254978;63;20212;-65
2021/12/05 04:55:29;;;;;;;3.15;1.55;;;19.10;48.40;;;;;;2254904;63;20252;-65
2021/12/05 04:57:57;;;;;;;1.80;1.30;;;19.10;48.40;;;;;;2254900;63;20400;-65
2021/12/05 05:00:27;;;;;;;3.97;1.63;;;19.10;48.40;;;;;;2254797;63;20201;-65
2021/12/05 05:02:54;;;;;;;2.58;1.73;;;19.20;48.40;;;;;;2254841;63;20329;-65
2021/12/05 05:05:21;;;;;;;3.67;1.83;;;19.10;48.40;;;;;;2254855;63;20191;-65
2021/12/05 05:07:48;;;;;;;3.35;1.90;;;19.10;48.40;;;;;;2254825;63;20165;-65
2021/12/05 05:10:22;;;;;;;2.25;1.50;;;19.00;48.30;;;;;;2254766;63;20267;-66
2021/12/05 05:12:49;;;;;;;2.65;1.40;;;19.10;48.30;;;;;;2254628;63;20337;-65
2021/12/05 05:15:20;;;;;;;3.00;1.73;;;19.10;48.40;;;;;;2254784;63;20249;-65
2021/12/05 05:17:49;;;;;;;2.03;1.52;;;19.10;48.30;;;;;;2254799;63;20212;-65
2021/12/05 05:20:31;;;;;;;3.40;1.95;;;19.10;48.40;;;;;;2254698;63;20222;-65
2021/12/05 05:49:23;;;;;;;2.15;1.50;;;19.00;48.30;;;;;;2254659;63;20306;-65
2021/12/05 05:51:49;;;;;;;3.10;2.05;;;19.00;48.30;;;;;;2254701;63;20245;-64
2021/12/05 05:54:16;;;;;;;3.22;1.80;;;18.90;48.20;;;;;;2254642;63;20169;-64
2021/12/05 05:56:44;;;;;;;2.47;1.30;;;19.00;48.30;;;;;;2254653;63;20160;-64
2021/12/05 05:59:24;;;;;;;3.33;1.60;;;19.00;48.30;;;;;;2254547;63;20208;-64
2021/12/05 06:04:16;;;;;;;2.63;1.50;;;19.00;48.30;;;;;;2254599;63;20160;-65
2021/12/05 06:06:43;;;;;;;3.45;1.75;;;19.00;48.30;;;;;;2254532;63;20176;-64
2021/12/05 06:09:08;;;;;;;3.83;1.85;;;19.00;48.20;;;;;;2254465;63;20193;-64
2021/12/05 06:11:35;;;;;;;3.50;1.88;;;19.00;48.20;;;;;;2254559;63;20153;-64
2021/12/05 06:14:03;;;;;;;3.17;1.40;;;19.00;48.30;;;;;;2254498;63;20212;-64
2021/12/05 06:16:29;;;;;;;2.22;1.77;;;19.00;48.20;;;;;;2254599;63;20176;-65
2021/12/05 06:18:55;;;;;;;3.03;1.52;;;19.00;48.30;;;;;;2254528;63;20804;-64
2021/12/05 06:21:22;;;;;;;3.53;2.00;;;19.00;48.20;;;;;;2254430;63;20702;-65
2021/12/05 06:23:48;;;;;;;3.28;1.48;;;19.00;48.20;;;;;;2254188;63;20283;-64
2021/12/05 06:26:21;;;;;;;2.95;1.40;;;19.00;48.20;;;;;;2254314;63;20180;-64
2021/12/05 06:28:57;;;;;;;3.55;1.45;;;19.00;48.20;;;;;;2254368;63;20198;-64
2021/12/05 06:47:23;;;;;;;4.35;1.60;;;19.20;47.90;;;;;;2254309;63;20567;-64
2021/12/05 06:49:49;;;;;;;4.45;2.00;;;19.30;47.90;;;;;;2254358;63;20279;-64
2021/12/05 06:52:15;;;;;;;1.70;1.30;;;19.40;47.70;;;;;;2254303;63;20191;-64
2021/12/05 06:54:42;;;;;;;2.92;1.35;;;19.50;47.60;;;;;;2254285;63;20353;-64
2021/12/05 06:57:08;;;;;;;4.80;1.75;;;19.60;47.50;;;;;;2254241;63;20169;-64
2021/12/05 06:59:39;;;;;;;1.80;1.20;;;19.80;47.30;;;;;;2254207;63;20168;-64
2021/12/05 07:02:06;;;;;;;4.55;1.60;;;19.90;47.20;;;;;;2254156;63;20190;-64
2021/12/05 07:07:21;;;;;;;2.40;1.13;;;20.20;46.90;;;;;;2254259;63;20805;-65
2021/12/05 07:09:48;;;;;;;2.13;1.40;;;20.20;46.80;;;;;;2254171;63;20180;-64
2021/12/05 07:12:45;;;;;;;3.03;1.73;;;20.30;46.70;;;;;;2254184;63;20570;-64
2021/12/05 07:26:12;;;;;;;3.63;1.70;;;20.30;46.60;;;;;;2254052;63;20181;-64
2021/12/05 07:42:24;;;;;;;3.17;1.23;;;20.40;46.30;;;;;;2253934;63;20219;-64
2021/12/05 07:44:51;;;;;;;2.13;1.40;;;20.40;46.30;;;;;;2253985;63;20208;-64
2021/12/05 07:47:20;;;;;;;2.90;1.30;;;20.50;46.30;;;;;;2253998;63;20198;-64
2021/12/05 07:49:48;;;;;;;4.55;1.73;;;20.50;46.30;;;;;;2254011;63;20309;-64
2021/12/05 07:52:19;;;;;;;3.47;1.55;;;20.50;46.20;;;;;;2253965;63;20662;-64
2021/12/05 07:54:50;;;;;;;1.70;1.30;;;20.50;46.20;;;;;;2246675;63;20186;-64
2021/12/05 07:57:24;;;;;;;2.38;1.30;;;20.50;46.10;;;;;;2253951;63;20247;-64
2021/12/05 08:16:25;;;;;;;3.42;1.80;;;20.30;46.20;;;;;;2253849;63;20342;-65
2021/12/05 08:18:51;;;;;;;3.33;1.92;;;20.30;46.30;;;;;;2253783;63;20291;-63
2021/12/05 08:21:17;;;;;;;3.28;1.20;;;20.30;46.40;;;;;;2253755;63;20156;-64
2021/12/05 08:23:45;;;;;;;3.38;1.67;;;20.30;46.40;;;;;;2253782;63;20188;-64
2021/12/05 08:26:18;;;;;;;3.28;1.77;;;20.30;46.50;;;;;;2253948;63;20823;-64
2021/12/05 10:11:43;;;;;;;3.38;1.50;;;20.60;47.50;;;;;;2254598;63;20160;-64
2021/12/05 10:17:32;;;;;;;3.70;1.92;;;20.60;47.60;;;;;;2262334;63;20181;-63
2021/12/05 10:33:57;;;;;;;3.05;1.30;;;20.60;47.70;;;;;;2262442;63;20211;-65
2021/12/05 10:36:26;;;;;;;4.53;1.70;;;20.60;47.70;;;;;;2262358;63;20210;-65
2021/12/05 10:38:59;;;;;;;3.03;1.65;;;20.60;47.70;;;;;;2262395;63;20208;-64
2021/12/05 10:44:00;;;;;;;5.40;1.95;;;20.60;47.70;;;;;;2262342;63;20160;-65
2021/12/05 10:46:29;;;;;;;9.93;2.28;;;20.60;47.70;;;;;;2262286;63;20257;-65
2021/12/05 10:49:03;;;;;;;7.82;2.33;;;20.60;47.80;;;;;;2262261;63;20180;-65
2021/12/05 10:51:46;;;;;;;5.32;1.92;;;20.60;47.80;;;;;;2262217;63;20651;-65
2021/12/05 10:54:15;;;;;;;5.65;2.10;;;20.60;47.80;;;;;;2262227;63;20254;-64
2021/12/05 10:56:42;;;;;;;8.73;2.00;;;20.60;47.80;;;;;;2262266;63;20161;-64
2021/12/05 10:59:13;;;;;;;7.57;2.25;;;20.60;47.80;;;;;;2262247;63;20160;-65
2021/12/05 11:01:49;;;;;;;5.75;2.00;;;20.60;47.80;;;;;;2262109;63;20171;-65
2021/12/05 11:04:24;;;;;;;7.07;2.08;;;20.60;47.80;;;;;;2262227;63;20168;-65
2021/12/05 11:07:02;;;;;;;9.32;2.30;;;20.50;47.80;;;;;;2262257;63;20176;-65
2021/12/05 11:09:34;;;;;;;5.20;2.00;;;20.60;47.80;;;;;;2262150;63;20352;-65
2021/12/05 11:12:16;;;;;;;3.42;1.77;;;20.60;47.80;;;;;;2261927;63;20274;-65
2021/12/05 11:14:44;;;;;;;6.43;1.90;;;20.60;47.80;;;;;;2262066;63;20671;-65
2021/12/05 11:17:26;;;;;;;6.95;1.80;;;20.60;47.80;;;;;;2262138;63;20269;-65
2021/12/05 11:20:01;;;;;;;5.57;1.90;;;20.60;47.80;;;;;;2262141;63;20305;-65
2021/12/05 11:22:34;;;;;;;5.05;1.98;;;20.60;47.80;;;;;;2262090;63;20679;-65
2021/12/05 11:25:20;;;;;;;4.55;2.17;;;20.50;47.80;;;;;;2262171;63;20164;-65
2021/12/05 11:27:47;;;;;;;;;;;20.50;47.80;;;;;;2262551;63;20179;-66
2021/12/05 11:30:21;;;;;;;7.18;1.80;;;20.50;47.80;;;;;;2262069;63;20145;-65
2021/12/05 11:33:01;;;;;;;5.90;2.00;;;20.50;47.80;;;;;;2262065;63;20189;-65
2021/12/05 11:35:54;;;;;;;6.38;1.85;;;20.50;47.70;;;;;;2262109;63;20790;-65
2021/12/05 11:38:21;;;;;;;4.38;1.70;;;20.50;47.70;;;;;;2262036;63;20671;-65
2021/12/05 11:40:51;;;;;;;7.32;1.98;;;20.50;47.70;;;;;;2261835;63;20164;-65
2021/12/05 11:43:42;;;;;;;5.97;2.05;;;20.50;47.70;;;;;;2261965;63;20176;-64
2021/12/05 11:46:20;;;;;;;4.95;1.90;;;20.50;47.70;;;;;;2261897;63;20164;-65
2021/12/05 11:49:08;;;;;;;5.38;1.73;;;20.50;47.70;;;;;;2262017;63;20176;-67
2021/12/05 11:51:52;;;;;;;5.47;1.83;;;20.50;47.60;;;;;;2261946;63;20295;-65
2021/12/05 11:54:17;;;;;;;8.57;2.67;;;20.50;47.60;;;;;;2261877;63;20172;-65
2021/12/05 11:56:46;;;;;;;9.05;2.50;;;20.50;47.60;;;;;;2261905;63;20172;-65
2021/12/05 11:59:14;;;;;;;10.65;2.70;;;20.50;47.60;;;;;;2261942;63;20194;-65
2021/12/05 12:02:00;;;;;;;11.25;2.58;;;20.50;47.60;;;;;;2261779;63;20292;-65
2021/12/05 12:05:01;;;;;;;8.23;2.75;;;20.50;47.60;;;;;;2261623;63;20189;-65
2021/12/05 12:07:26;;;;;;;8.80;2.97;;;20.60;47.60;;;;;;2221252;64;20167;-64
2021/12/05 12:10:08;;;;;;;9.73;2.58;;;20.60;47.60;;;;;;2221300;64;20220;-65
2021/12/05 12:12:34;;;;;;;8.75;2.70;;;20.60;47.60;;;;;;2221233;64;20276;-65
2021/12/05 12:15:00;;;;;;;8.00;2.55;;;20.60;47.60;;;;;;2221253;64;20730;-65
2021/12/05 12:17:26;;;;;;;9.45;2.50;;;20.50;47.60;;;;;;2221311;64;20408;-65
2021/12/05 12:19:54;;;;;;;8.27;2.40;;;20.60;47.70;;;;;;2221325;64;20359;-65
2021/12/05 12:22:23;;;;;;;8.05;2.33;;;20.50;47.60;;;;;;2221383;64;20778;-65
2021/12/05 12:24:56;;;;;;;7.57;2.22;;;20.60;47.70;;;;;;2222522;64;20171;-65
2021/12/05 12:27:23;;;;;;;11.07;2.50;;;20.60;47.70;;;;;;2222576;64;20355;-65
2021/12/05 12:29:52;;;;;;;8.98;2.83;;;20.60;47.80;;;;;;2222548;64;20163;-64
2021/12/05 12:32:24;;;;;;;6.60;2.40;;;20.60;47.80;;;;;;2222556;64;20703;-65
2021/12/05 12:35:05;;;;;;;7.07;2.33;;;20.60;47.80;;;;;;2222527;64;20329;-64
2021/12/05 12:37:31;;;;;;;10.35;1.80;;;20.60;47.80;;;;;;2222496;64;20184;-65
2021/12/05 12:39:57;;;;;;;8.48;2.50;;;20.60;47.90;;;;;;2222455;64;20280;-66
2021/12/05 12:42:25;;;;;;;7.35;2.00;;;20.60;47.90;;;;;;2222349;64;20215;-64
2021/12/05 12:45:04;;;;;;;8.10;2.30;;;20.60;47.90;;;;;;2260437;63;20191;-65
2021/12/05 12:47:46;;;;;;;6.60;1.70;;;20.60;48.00;;;;;;2263051;63;20221;-65
2021/12/05 12:50:40;;;;;;;9.13;2.28;;;20.60;48.00;;;;;;2262592;63;20160;-65
2021/12/05 12:53:29;;;;;;;6.90;2.42;;;20.60;48.60;;;;;;2263003;63;20179;-65
2021/12/05 12:56:05;;;;;;;5.57;2.15;;;20.60;48.00;;;;;;2262957;63;20185;-65
2021/12/05 12:58:45;;;;;;;7.85;2.42;;;20.60;48.10;;;;;;2262945;63;20163;-65
2021/12/05 13:10:08;;;;;;;7.90;2.30;;;20.60;48.30;;;;;;2222273;64;20179;-67
2021/12/05 13:12:40;;;;;;;5.40;2.05;;;20.60;48.30;;;;;;2222325;64;20233;-65
2021/12/05 13:15:38;;;;;;;9.73;2.67;;;20.60;48.40;;;;;;2222291;64;20175;-66
2021/12/05 13:18:21;;;;;;;18.98;2.97;;;20.50;48.50;;;;;;2191625;65;20267;-66
2021/12/05 13:21:10;;;;;;;11.68;2.20;;;20.60;48.60;;;;;;2191601;65;20301;-67
2021/12/05 13:23:50;;;;;;;9.15;2.22;;;20.60;48.70;;;;;;2191615;65;20182;-66
2021/12/05 13:26:36;;;;;;;5.68;1.95;;;20.50;48.70;;;;;;2191595;65;20712;-66
2021/12/05 13:29:11;;;;;;;;;;;20.50;48.80;;;;;;2191999;65;20701;-65
2021/12/05 13:31:47;;;;;;;6.90;2.10;;;20.50;48.90;;;;;;2191571;65;20244;-65
2021/12/05 13:34:24;;;;;;;10.45;2.50;;;20.50;48.90;;;;;;2191495;65;20230;-66
2021/12/05 13:37:20;;;;;;;4.97;2.08;;;20.50;48.80;;;;;;2191533;65;20346;-65
2021/12/05 13:40:05;;;;;;;4.35;2.35;;;20.60;49.00;;;;;;2191549;65;20192;-67
2021/12/05 13:42:47;;;;;;;6.28;1.80;;;20.50;48.90;;;;;;2191411;65;20158;-67
2021/12/05 13:45:25;;;;;;;5.03;2.10;;;20.50;48.80;;;;;;2222065;64;20811;-66
2021/12/05 13:47:51;;;;;;;6.68;2.38;;;20.50;48.80;;;;;;2222162;64;20164;-66
2021/12/05 13:50:25;;;;;;;10.57;2.38;;;20.40;48.80;;;;;;2222106;64;20574;-66
2021/12/05 13:52:59;;;;;;;10.35;2.15;;;20.40;48.80;;;;;;2222168;64;20720;-67
2021/12/05 13:55:40;;;;;;;8.35;2.33;;;20.40;48.80;;;;;;2247191;63;20164;-66
2021/12/05 13:58:40;;;;;;;6.35;1.90;;;20.40;48.90;;;;;;2262570;63;20169;-66
2021/12/05 14:01:18;;;;;;;9.18;2.50;;;20.30;48.90;;;;;;2262575;63;20736;-67
2021/12/05 14:04:03;;;;;;;6.07;2.03;;;20.30;49.00;;;;;;2262621;63;20199;-67
2021/12/05 14:06:49;;;;;;;5.65;2.28;;;20.30;49.10;;;;;;2262633;63;20164;-66
2021/12/05 14:09:22;;;;;;;5.93;2.00;;;20.20;49.10;;;;;;2262528;63;20635;-67
2021/12/05 14:12:02;;;;;;;7.47;2.10;;;20.20;49.10;;;;;;2262521;63;20168;-67
2021/12/05 14:14:34;;;;;;;5.47;2.08;;;20.20;49.20;;;;;;2262487;63;20261;-66
2021/12/05 14:17:04;;;;;;;7.50;2.30;;;20.20;49.20;;;;;;2262438;63;20312;-68
2021/12/05 14:19:32;;;;;;;5.57;2.20;;;20.20;49.30;;;;;;2262529;63;20881;-66
2021/12/05 14:22:00;;;;;;;8.25;2.10;;;20.10;49.30;;;;;;2262384;63;20219;-66
2021/12/05 14:24:30;;;;;;;6.38;2.28;;;20.10;49.30;;;;;;2262419;63;20209;-67
2021/12/05 14:26:59;;;;;;;6.40;2.58;;;20.10;49.40;;;;;;2262378;63;20319;-68
2021/12/05 14:29:28;;;;;;;5.07;2.22;;;20.10;50.00;;;;;;2262379;63;20623;-66
2021/12/05 14:31:58;;;;;;;5.97;1.98;;;20.10;49.40;;;;;;2262328;63;20303;-68
2021/12/05 14:34:25;;;;;;;5.90;2.28;;;20.10;49.50;;;;;;2262376;63;20324;-67
2021/12/05 14:36:55;;;;;;;7.70;2.25;;;20.10;49.50;;;;;;2262381;63;20320;-67
2021/12/05 14:39:31;;;;;;;7.05;2.20;;;20.00;49.40;;;;;;2262309;63;20193;-66
2021/12/05 14:42:00;;;;;;;7.57;1.95;;;20.00;49.40;;;;;;2262273;63;20171;-66
2021/12/05 14:44:28;;;;;;;7.70;2.53;;;20.00;49.50;;;;;;2262364;63;20163;-67
2021/12/05 14:46:56;;;;;;;7.70;2.38;;;20.00;49.50;;;;;;2261978;63;20188;-68
2021/12/05 14:49:25;;;;;;;7.75;2.25;;;20.00;49.50;;;;;;2262353;63;20891;-66
2021/12/05 14:51:52;;;;;;;4.78;1.70;;;20.00;49.50;;;;;;2262257;63;20194;-66
2021/12/05 14:54:25;;;;;;;5.43;2.20;;;20.00;49.60;;;;;;2262319;63;20188;-67
2021/12/05 14:56:51;;;;;;;5.18;2.05;;;19.90;49.50;;;;;;2262313;63;20408;-66
2021/12/05 14:59:20;;;;;;;8.23;2.53;;;20.00;49.50;;;;;;2262285;63;20305;-67
2021/12/05 15:01:51;;;;;;;8.75;2.38;;;19.90;49.50;;;;;;2262205;63;20180;-67
2021/12/05 15:04:24;;;;;;;7.20;2.42;;;19.90;49.50;;;;;;2262295;63;20172;-66
2021/12/05 15:06:50;;;;;;;8.20;2.00;;;19.90;49.50;;;;;;2262254;63;20763;-68
2021/12/05 15:09:28;;;;;;;5.50;2.00;;;19.90;49.50;;;;;;2262198;63;20163;-66
2021/12/05 15:11:58;;;;;;;5.75;1.95;;;19.90;49.50;;;;;;2262234;63;20336;-66
2021/12/05 15:14:25;;;;;;;5.63;2.42;;;19.80;49.50;;;;;;2262214;63;20196;-67
2021/12/05 15:17:00;;;;;;;7.03;2.45;;;19.80;49.50;;;;;;2262162;63;20172;-69
2021/12/05 15:19:26;;;;;;;9.90;2.50;;;19.80;49.40;;;;;;2262251;63;20303;-66
2021/12/05 15:21:52;;;;;;;9.65;2.53;;;19.80;49.50;;;;;;2262001;63;20244;-68
2021/12/05 15:24:22;;;;;;;9.80;2.30;;;19.80;49.50;;;;;;2262162;63;20160;-66
2021/12/05 15:26:48;;;;;;;7.00;2.05;;;19.80;49.70;;;;;;2262132;63;20191;-66
2021/12/05 15:29:14;;;;;;;8.48;2.28;;;19.80;49.80;;;;;;2262084;63;20191;-66
2021/12/05 15:31:42;;;;;;;5.32;2.38;;;19.70;49.80;;;;;;2262031;63;20177;-66
2021/12/05 15:34:37;;;;;;;6.00;2.13;;;19.70;49.90;;;;;;2262028;63;20305;-66
2021/12/05 15:37:10;;;;;;;9.23;2.30;;;19.60;50.00;;;;;;2221526;64;20354;-67
2021/12/05 15:39:39;;;;;;;10.07;2.78;;;19.60;50.20;;;;;;2221471;64;20224;-67
2021/12/05 15:42:14;;;;;;;5.03;1.77;;;19.60;50.20;;;;;;2221366;64;20162;-66
2021/12/05 15:44:42;;;;;;;6.22;2.45;;;19.70;50.30;;;;;;2221533;64;20600;-66
2021/12/05 15:47:26;;;;;;;7.55;2.60;;;19.70;50.30;;;;;;2221380;64;20252;-66
2021/12/05 15:50:06;;;;;;;6.80;2.25;;;19.70;50.30;;;;;;2221525;64;20342;-65
2021/12/05 15:52:55;;;;;;;11.43;2.55;;;19.70;50.50;;;;;;2221456;64;20180;-65
2021/12/05 15:55:30;;;;;;;7.63;2.03;;;19.70;50.60;;;;;;2221367;64;20209;-66
2021/12/05 15:58:09;;;;;;;9.23;2.80;;;19.70;50.70;;;;;;2222467;64;20244;-65
2021/12/05 16:00:58;;;;;;;5.88;1.95;;;19.80;50.80;;;;;;2222619;64;20261;-65
2021/12/05 16:03:37;;;;;;;7.85;2.45;;;19.70;51.30;;;;;;2222598;64;20171;-66
2021/12/05 16:06:04;;;;;;;6.40;2.10;;;19.70;50.80;;;;;;2222634;64;20214;-66
2021/12/05 16:08:32;;;;;;;6.75;2.10;;;19.70;50.80;;;;;;2222664;64;20171;-67
2021/12/05 16:11:01;;;;;;;6.28;2.28;;;19.70;50.90;;;;;;2222573;64;20179;-66
2021/12/05 16:13:38;;;;;;;7.63;2.10;;;19.70;50.90;;;;;;2242321;63;20172;-66
2021/12/05 16:16:22;;;;;;;6.05;1.88;;;19.70;51.00;;;;;;2263175;63;20204;-66
2021/12/05 16:18:53;;;;;;;10.02;2.38;;;19.70;51.00;;;;;;2263114;63;20209;-66
2021/12/05 16:21:41;;;;;;;5.18;2.20;;;19.70;51.00;;;;;;2263079;63;20176;-65
2021/12/05 16:24:13;;;;;;;5.95;1.58;;;19.70;51.10;;;;;;2263161;63;20728;-66
2021/12/05 16:26:41;;;;;;;9.85;2.30;;;19.70;51.10;;;;;;2263096;63;20188;-65
2021/12/05 16:29:12;;;;;;;9.45;2.00;;;19.70;51.10;;;;;;2263122;63;20172;-66
2021/12/05 16:31:46;;;;;;;5.70;2.20;;;19.70;51.10;;;;;;2263076;63;20223;-66
2021/12/05 16:34:17;;;;;;;6.70;1.98;;;19.60;51.10;;;;;;2263041;63;20195;-66
2021/12/05 16:36:52;;;;;;;7.88;1.85;;;19.60;51.00;;;;;;2263076;63;20193;-66
2021/12/05 16:39:21;;;;;;;5.85;2.47;;;19.60;51.00;;;;;;2263041;63;20168;-66
2021/12/05 16:41:51;;;;;;;4.72;1.80;;;19.60;51.00;;;;;;2262894;63;20198;-65
2021/12/05 16:44:21;;;;;;;5.32;1.88;;;19.60;51.00;;;;;;2263041;63;20164;-65
2021/12/05 16:46:55;;;;;;;5.57;1.67;;;19.60;50.90;;;;;;2262975;63;20206;-65
2021/12/05 16:49:36;;;;;;;5.93;2.05;;;19.60;50.90;;;;;;2263008;63;20723;-66
2021/12/05 16:52:14;;;;;;;5.93;2.20;;;19.60;50.80;;;;;;2262980;63;20221;-66
2021/12/05 16:54:48;;;;;;;3.78;1.90;;;19.60;50.70;;;;;;2262971;63;20642;-65
2021/12/05 16:57:18;;;;;;;6.35;1.90;;;19.60;50.70;;;;;;2262963;63;20148;-66
2021/12/05 17:00:12;;;;;;;5.10;2.00;;;19.60;50.70;;;;;;2262920;63;20730;-66
2021/12/05 17:02:44;;;;;;;4.05;2.05;;;19.60;50.60;;;;;;2261468;63;20278;-65
2021/12/05 17:05:33;;;;;;;4.95;2.13;;;19.60;50.70;;;;;;2262914;63;20225;-65
2021/12/05 17:08:09;;;;;;;4.00;1.73;;;19.70;50.60;;;;;;2262710;63;20156;-66
2021/12/05 17:11:09;;;;;;;4.07;2.20;;;19.70;50.60;;;;;;2262828;63;20200;-65
2021/12/05 17:13:44;;;;;;;4.53;2.03;;;19.80;50.40;;;;;;2262782;63;20182;-65
2021/12/05 17:16:23;;;;;;;7.70;2.22;;;19.80;50.30;;;;;;2262833;63;20607;-66
2021/12/05 17:18:58;;;;;;;3.83;1.52;;;19.90;50.20;;;;;;2262840;63;20275;-66
2021/12/05 17:21:47;;;;;;;4.40;1.50;;;20.00;50.10;;;;;;2262822;63;20344;-66
2021/12/05 17:24:18;;;;;;;3.25;1.73;;;20.10;50.00;;;;;;2262839;63;20168;-65
2021/12/05 17:26:54;;;;;;;3.05;1.50;;;20.10;49.90;;;;;;2262777;63;20291;-65
2021/12/05 17:29:22;;;;;;;;;;;20.20;49.90;;;;;;2263220;63;20591;-66
2021/12/05 17:32:07;;;;;;;3.38;1.70;;;20.20;49.80;;;;;;2262726;63;20512;-65
2021/12/05 17:34:37;;;;;;;6.35;1.52;;;20.20;49.80;;;;;;2262831;63;20222;-66
2021/12/05 17:37:09;;;;;;;4.45;1.75;;;20.30;49.80;;;;;;2262699;63;20184;-66
2021/12/05 17:39:40;;;;;;;4.72;1.80;;;20.30;49.70;;;;;;2262667;63;20806;-66
2021/12/05 17:42:12;;;;;;;2.83;1.58;;;20.30;49.70;;;;;;2262551;63;20168;-66
2021/12/05 17:44:40;;;;;;;3.92;1.90;;;20.30;49.60;;;;;;2262737;63;20164;-66
2021/12/05 17:47:10;;;;;;;2.75;1.50;;;20.40;49.60;;;;;;2262638;63;20342;-66
2021/12/05 17:49:38;;;;;;;2.95;1.52;;;20.40;49.60;;;;;;2262679;63;20217;-67
2021/12/05 17:52:06;;;;;;;6.88;1.60;;;20.40;49.50;;;;;;2262656;63;20709;-66
2021/12/05 17:54:38;;;;;;;4.43;1.73;;;20.40;49.50;;;;;;2262606;63;20662;-66
2021/12/05 17:57:10;;;;;;;4.30;1.60;;;20.40;49.50;;;;;;2262612;63;20255;-66
2021/12/05 18:05:00;;;;;;;3.33;1.70;;;20.40;49.50;;;;;;2261094;63;20198;-66
2021/12/05 18:07:26;;;;;;;4.97;1.70;;;20.40;49.50;;;;;;2262136;63;20160;-67
2021/12/05 18:09:52;;;;;;;4.15;1.73;;;20.40;49.40;;;;;;2262139;63;20776;-65
2021/12/05 18:12:22;;;;;;;6.85;1.95;;;20.40;49.40;;;;;;2262370;63;20156;-65
2021/12/05 18:14:52;;;;;;;1.95;1.25;;;20.50;49.40;;;;;;2262184;63;20156;-65
2021/12/05 18:17:18;;;;;;;3.42;1.58;;;20.50;49.40;;;;;;2261979;63;20155;-65
2021/12/05 18:19:44;;;;;;;4.95;1.70;;;20.50;49.30;;;;;;2261520;63;20221;-65
2021/12/05 18:22:11;;;;;;;4.15;1.35;;;20.50;49.30;;;;;;2261803;63;20208;-66
2021/12/05 18:24:37;;;;;;;4.65;1.73;;;20.50;49.30;;;;;;2262005;63;20184;-65
2021/12/05 18:27:04;;;;;;;3.08;1.58;;;20.50;49.30;;;;;;2261696;63;20149;-65
2021/12/05 18:29:29;;;;;;;5.80;1.70;;;20.50;49.30;;;;;;2262059;63;20176;-65
2021/12/05 18:31:56;;;;;;;3.03;1.75;;;20.50;49.30;;;;;;2261886;63;20365;-67
2021/12/05 18:34:27;;;;;;;6.63;2.33;;;20.50;49.20;;;;;;2261946;63;20193;-66
2021/12/05 18:36:55;;;;;;;3.70;1.42;;;20.50;49.20;;;;;;2261789;63;20188;-66
2021/12/05 18:39:38;;;;;;;2.53;1.48;;;20.50;49.20;;;;;;2261398;63;20282;-66
2021/12/05 18:42:08;;;;;;;2.08;1.48;;;20.50;49.10;;;;;;2261547;63;20744;-66
2021/12/05 18:44:38;;;;;;;2.97;1.70;;;20.60;49.20;;;;;;2261720;63;20681;-66
2021/12/05 18:47:06;;;;;;;2.45;1.40;;;20.50;49.10;;;;;;2261821;63;20288;-67